Wtr Mill, New York
Current Conditions -  °F | °C
As of 10:32 PM on Sunday 21 Dec 2014 (Local Time) from KFOK Reporting Station
Overcast Overcast  
Wind Chill: 31°   Ceiling: 900
Heat Index: 37°   Visibility: 10mi
Dew Point: 34°   Wind: 8mph
Humidity: 89%   Direction: 20°NNE
Pressure: 30.33"   Gusts: NA
Location:  40.9217°N, 72.3434°W
Report Text: KFOK 220332Z AUTO 02007KT 10SM BKN009 OVC018 03/01 A3033 RMK AO2 RAE03 P0000 T00280011 TSNO
Loading
Personal Weather Stations






























Interactive Weather Map New forecast layout! Learn more

10-Day Weather Forecast

Advertisements
Track Severe Weather on mobile